Terminal Aerodrome Forecast
Issued by NWS Wichita, KS

Home | Current Version | Previous Version | Graphics & Text | Print | Product List | Glossary On
Versions: 1 2 3 4 5 6 7 8 9 10 11 12 13 14 15 16 17 18 19 20 21 22 23 24 25 26 27 28 29 30 31 32 33 34 35
000
FTUS43 KICT 182326
TAFICT
TAF
KICT 182326Z 1900/1924 36006KT P6SM OVC009
     FM190300 04004KT 3SM BR OVC006
     FM190800 07004KT 1/2SM FG OVC002
     FM191500 17004KT 3SM BR OVC004
     FM192000 18005KT P6SM FEW015 SCT050 BKN100=

USA.gov is the U.S. government's official web portal to all federal, state and local government web resources and services.